createdAt,value
2023-03-20T00:02:19.769Z,9.70
2023-03-20T00:04:46.791Z,9.70
2023-03-20T00:07:13.777Z,9.40
2023-03-20T00:09:40.814Z,6.90
2023-03-20T00:12:10.363Z,9.70
2023-03-20T00:14:37.343Z,9.60
2023-03-20T00:17:11.028Z,9.60
2023-03-20T00:19:38.615Z,9.60
2023-03-20T00:22:05.612Z,10.30
2023-03-20T00:24:32.624Z,9.50
2023-03-20T00:26:59.670Z,9.60
2023-03-20T00:29:31.147Z,9.50
2023-03-20T00:31:59.133Z,9.50
2023-03-20T00:34:29.746Z,9.50
2023-03-20T00:36:56.948Z,9.50
2023-03-20T00:39:24.435Z,9.50
2023-03-20T00:42:17.076Z,9.50
2023-03-20T00:44:51.125Z,9.50
2023-03-20T00:47:20.882Z,9.50
2023-03-20T00:49:50.081Z,9.50
2023-03-20T00:52:19.269Z,9.50
2023-03-20T00:54:46.462Z,9.50
2023-03-20T00:57:38.914Z,9.50
2023-03-20T01:00:28.859Z,9.50
2023-03-20T01:02:58.033Z,9.50
2023-03-20T01:05:27.523Z,9.40
2023-03-20T01:07:55.024Z,9.30
2023-03-20T01:10:23.620Z,9.30
2023-03-20T01:12:50.793Z,9.30
2023-03-20T01:15:37.907Z,7.90
2023-03-20T01:18:05.558Z,9.20
2023-03-20T01:20:32.568Z,9.20
2023-03-20T01:22:59.658Z,9.20
2023-03-20T01:25:26.761Z,9.20
2023-03-20T01:27:55.098Z,9.20
2023-03-20T01:30:26.529Z,9.30
2023-03-20T01:32:54.184Z,9.20
2023-03-20T01:35:23.733Z,9.20
2023-03-20T01:37:51.169Z,9.20
2023-03-20T01:40:43.536Z,9.10
2023-03-20T01:43:16.803Z,9.10
2023-03-20T01:46:10.321Z,9.10
2023-03-20T01:49:00.918Z,9.00
2023-03-20T01:51:29.620Z,9.00
2023-03-20T01:54:20.098Z,9.00
2023-03-20T01:56:55.194Z,8.90
2023-03-20T01:59:33.548Z,8.90
2023-03-20T02:02:01.032Z,8.90
2023-03-20T02:04:33.631Z,8.90
2023-03-20T02:07:01.008Z,8.90
2023-03-20T02:09:27.996Z,8.80
2023-03-20T02:11:56.526Z,8.80
2023-03-20T02:14:24.181Z,8.80
2023-03-20T02:16:51.285Z,8.70
2023-03-20T02:19:31.985Z,8.60
2023-03-20T02:22:38.703Z,8.60
2023-03-20T02:25:45.476Z,8.60
2023-03-20T02:28:44.190Z,8.50
2023-03-20T02:31:41.412Z,8.40
2023-03-20T02:34:48.653Z,8.40
2023-03-20T02:37:55.369Z,8.40
2023-03-20T02:40:47.808Z,8.40
2023-03-20T02:43:33.013Z,8.30
2023-03-20T02:46:39.711Z,8.30
2023-03-20T02:49:46.526Z,8.40
2023-03-20T02:52:43.141Z,8.50
2023-03-20T02:55:34.984Z,8.50
2023-03-20T02:58:41.818Z,5.80
2023-03-20T03:01:21.167Z,8.30
2023-03-20T03:04:10.908Z,7.50
2023-03-20T03:06:41.855Z,8.20
2023-03-20T03:09:31.791Z,8.20
2023-03-20T03:12:06.928Z,8.20
2023-03-20T03:14:54.520Z,8.10
2023-03-20T03:17:25.848Z,8.10
2023-03-20T03:19:59.242Z,8.20
2023-03-20T03:22:26.816Z,8.20
2023-03-20T03:24:54.915Z,8.30
2023-03-20T03:27:41.499Z,8.30
2023-03-20T03:30:16.180Z,8.30
2023-03-20T03:32:49.657Z,8.30
2023-03-20T03:35:20.901Z,8.40
2023-03-20T03:38:18.919Z,7.90
2023-03-20T03:40:56.906Z,8.40
2023-03-20T03:43:34.105Z,8.40
2023-03-20T03:46:07.032Z,8.40
2023-03-20T03:48:40.420Z,8.40
2023-03-20T03:51:13.029Z,8.30
2023-03-20T03:53:49.069Z,8.20
2023-03-20T03:56:21.127Z,8.10
2023-03-20T03:58:52.353Z,8.10
2023-03-20T04:01:22.298Z,8.10
2023-03-20T04:03:53.866Z,8.10
2023-03-20T04:06:21.297Z,8.10
2023-03-20T04:08:48.455Z,8.10
2023-03-20T04:11:22.367Z,8.10
2023-03-20T04:13:51.498Z,8.00
2023-03-20T04:16:20.297Z,8.00
2023-03-20T04:18:47.780Z,8.00
2023-03-20T04:21:16.207Z,8.00
2023-03-20T04:23:43.532Z,7.90
2023-03-20T04:26:10.679Z,7.90
2023-03-20T04:28:37.871Z,7.90
2023-03-20T04:31:05.281Z,8.00
2023-03-20T04:33:32.398Z,8.00
2023-03-20T04:35:59.526Z,7.90
2023-03-20T04:38:27.072Z,8.00
2023-03-20T04:40:54.204Z,8.10
2023-03-20T04:43:21.276Z,8.10
2023-03-20T04:45:48.519Z,8.10
2023-03-20T04:48:15.511Z,8.10
2023-03-20T04:50:42.504Z,8.10
2023-03-20T04:53:09.523Z,8.10
2023-03-20T04:55:36.610Z,8.10
2023-03-20T04:58:03.910Z,8.10
2023-03-20T05:00:31.093Z,8.10
2023-03-20T05:02:58.373Z,8.00
2023-03-20T05:05:25.876Z,8.00
2023-03-20T05:07:53.163Z,8.10
2023-03-20T05:10:20.226Z,8.00
2023-03-20T05:12:47.877Z,8.00
2023-03-20T05:15:14.904Z,8.00
2023-03-20T05:17:41.851Z,8.00
2023-03-20T05:20:09.594Z,8.00
2023-03-20T05:22:36.997Z,8.00
2023-03-20T05:25:04.287Z,8.00
2023-03-20T05:27:31.376Z,8.00
2023-03-20T05:29:58.361Z,8.20
2023-03-20T05:32:25.580Z,8.00
2023-03-20T05:34:53.155Z,8.00
2023-03-20T05:37:20.181Z,8.00
2023-03-20T05:39:47.127Z,8.00
2023-03-20T05:42:14.089Z,8.00
2023-03-20T05:44:41.329Z,8.10
2023-03-20T05:47:08.405Z,8.10
2023-03-20T05:49:35.414Z,8.10
2023-03-20T05:52:02.718Z,8.20
2023-03-20T05:54:29.748Z,8.10
2023-03-20T05:56:59.038Z,8.20
2023-03-20T05:59:27.402Z,8.20
2023-03-20T06:01:54.339Z,8.30
2023-03-20T06:04:21.422Z,8.30
2023-03-20T06:06:48.436Z,8.30
2023-03-20T06:09:15.779Z,8.40
2023-03-20T06:11:42.776Z,8.40
2023-03-20T06:14:09.806Z,8.40
2023-03-20T06:16:36.822Z,7.20
2023-03-20T06:19:03.957Z,8.50
2023-03-20T06:21:31.210Z,8.50
2023-03-20T06:24:00.152Z,8.50
2023-03-20T06:26:27.323Z,8.60
2023-03-20T06:28:54.342Z,8.60
2023-03-20T06:31:21.664Z,8.60
2023-03-20T06:33:49.239Z,8.70
2023-03-20T06:36:16.358Z,8.70
2023-03-20T06:38:43.522Z,8.70
2023-03-20T06:41:10.508Z,8.80
2023-03-20T06:43:37.592Z,8.80
2023-03-20T06:46:04.923Z,8.80
2023-03-20T06:48:31.926Z,8.90
2023-03-20T06:50:58.874Z,8.90
2023-03-20T06:53:26.090Z,8.90
2023-03-20T06:55:54.837Z,9.00
2023-03-20T06:58:21.871Z,9.00
2023-03-20T07:00:49.073Z,9.10
2023-03-20T07:03:16.781Z,9.10
2023-03-20T07:05:45.047Z,9.10
2023-03-20T07:08:12.328Z,9.10
2023-03-20T07:10:39.355Z,9.20
2023-03-20T07:13:06.353Z,9.20
2023-03-20T07:15:33.614Z,9.30
2023-03-20T07:18:00.888Z,8.50
2023-03-20T07:20:28.094Z,9.40
2023-03-20T07:22:55.699Z,9.50
2023-03-20T07:25:35.476Z,9.50
2023-03-20T07:28:09.048Z,9.50
2023-03-20T07:30:36.383Z,9.50
2023-03-20T07:33:03.640Z,10.40
2023-03-20T07:35:31.043Z,9.80
2023-03-20T07:37:58.376Z,9.70
2023-03-20T07:40:26.036Z,9.80
2023-03-20T07:42:53.039Z,9.80
2023-03-20T07:45:20.053Z,9.80
2023-03-20T07:47:48.668Z,9.90
2023-03-20T07:50:16.446Z,9.90
2023-03-20T07:52:48.241Z,10.00
2023-03-20T07:55:18.358Z,10.10
2023-03-20T07:57:56.217Z,10.20
2023-03-20T08:00:23.260Z,10.20
2023-03-20T08:02:50.265Z,10.10
2023-03-20T08:05:17.978Z,10.20
2023-03-20T08:08:00.950Z,10.20
2023-03-20T08:10:28.188Z,10.20
2023-03-20T08:12:56.102Z,10.30
2023-03-20T08:15:23.138Z,10.40
2023-03-20T08:17:50.142Z,10.30
2023-03-20T08:20:17.603Z,10.40
2023-03-20T08:22:45.166Z,10.50
2023-03-20T08:25:12.307Z,10.70
2023-03-20T08:27:39.234Z,10.50
2023-03-20T08:30:07.166Z,10.90
2023-03-20T08:32:34.297Z,11.10
2023-03-20T08:35:01.482Z,9.70
2023-03-20T08:37:28.741Z,11.20
2023-03-20T08:39:55.791Z,11.20
2023-03-20T08:42:23.152Z,11.20
2023-03-20T08:44:50.187Z,11.30
2023-03-20T08:47:17.342Z,11.40
2023-03-20T08:49:44.432Z,11.50
2023-03-20T08:52:11.602Z,11.50
2023-03-20T08:54:38.764Z,11.50
2023-03-20T08:57:06.113Z,9.50
2023-03-20T08:59:33.283Z,11.80
2023-03-20T09:02:00.608Z,11.90
2023-03-20T09:04:28.112Z,12.00
2023-03-20T09:06:55.552Z,12.10
2023-03-20T09:09:29.430Z,12.10
2023-03-20T09:11:58.602Z,12.30
2023-03-20T09:14:27.162Z,12.50
2023-03-20T09:16:54.290Z,12.40
2023-03-20T09:19:21.333Z,12.30
2023-03-20T09:21:48.919Z,12.10
2023-03-20T09:24:16.568Z,12.00
2023-03-20T09:26:43.613Z,12.00
2023-03-20T09:29:10.619Z,12.00
2023-03-20T09:31:37.778Z,12.00
2023-03-20T09:34:04.822Z,11.90
2023-03-20T09:36:32.026Z,11.80
2023-03-20T09:38:59.177Z,11.80
2023-03-20T09:41:28.504Z,11.60
2023-03-20T09:44:35.270Z,11.60
2023-03-20T09:47:29.402Z,11.50
2023-03-20T09:50:36.311Z,11.70
2023-03-20T09:53:41.035Z,11.80
2023-03-20T09:56:16.779Z,11.90
2023-03-20T09:58:47.500Z,11.90
2023-03-20T10:01:16.069Z,12.10
2023-03-20T10:03:51.709Z,12.30
2023-03-20T10:06:18.780Z,12.30
2023-03-20T10:08:47.160Z,12.30
2023-03-20T10:11:46.430Z,12.50
2023-03-20T10:14:53.178Z,12.60
2023-03-20T10:17:59.871Z,12.70
2023-03-20T10:20:51.186Z,12.90
2023-03-20T10:23:32.359Z,12.90
2023-03-20T10:26:06.416Z,12.60
2023-03-20T10:28:51.821Z,12.20
2023-03-20T10:31:58.646Z,11.80
2023-03-20T10:34:52.247Z,11.50
2023-03-20T10:37:59.033Z,11.20
2023-03-20T10:40:32.367Z,11.10
2023-03-20T10:43:14.689Z,11.20
2023-03-20T10:46:03.847Z,10.90
2023-03-20T10:48:44.447Z,10.40
2023-03-20T10:51:17.295Z,11.50
2023-03-20T10:54:06.037Z,11.50
2023-03-20T10:56:37.970Z,11.50
2023-03-20T10:59:09.154Z,13.40
2023-03-20T11:01:36.372Z,11.40
2023-03-20T11:04:03.559Z,11.40
2023-03-20T11:06:33.369Z,11.30
2023-03-20T11:09:17.115Z,11.30
2023-03-20T11:11:46.581Z,11.20
2023-03-20T11:14:21.141Z,11.00
2023-03-20T11:16:50.384Z,10.90
2023-03-20T11:19:21.372Z,11.00
2023-03-20T11:21:51.136Z,11.00
2023-03-20T11:24:41.257Z,11.00
2023-03-20T11:27:13.433Z,11.00
2023-03-20T11:29:45.176Z,11.10
2023-03-20T11:32:52.445Z,11.10
2023-03-20T11:35:29.149Z,11.10
2023-03-20T11:38:23.297Z,10.90
2023-03-20T11:40:53.698Z,10.80
2023-03-20T11:43:23.995Z,10.80
2023-03-20T11:45:56.305Z,10.70
2023-03-20T11:48:45.765Z,10.60
2023-03-20T11:51:19.952Z,10.40
2023-03-20T11:54:07.991Z,10.50
2023-03-20T11:56:36.845Z,10.50
2023-03-20T11:59:26.870Z,10.50
2023-03-20T12:01:56.067Z,10.70
2023-03-20T12:04:47.997Z,10.80
2023-03-20T12:07:23.771Z,11.00
2023-03-20T12:10:12.528Z,11.10
2023-03-20T12:13:03.157Z,11.10
2023-03-20T12:15:51.924Z,11.00
2023-03-20T12:18:41.031Z,10.90
2023-03-20T12:21:15.162Z,10.80
2023-03-20T12:24:11.580Z,10.70
2023-03-20T12:27:05.745Z,10.70
2023-03-20T12:29:40.778Z,10.50
2023-03-20T12:32:24.625Z,10.40
2023-03-20T12:34:59.036Z,10.30
2023-03-20T12:37:26.201Z,10.10
2023-03-20T12:39:57.186Z,10.10
2023-03-20T12:43:03.882Z,10.20
2023-03-20T12:45:44.198Z,10.20
2023-03-20T12:48:37.274Z,10.30
2023-03-20T12:51:28.834Z,10.30
2023-03-20T12:54:21.401Z,10.20
2023-03-20T12:57:28.082Z,10.30
2023-03-20T13:00:35.144Z,10.10
2023-03-20T13:03:42.066Z,10.00
2023-03-20T13:06:48.787Z,9.60
2023-03-20T13:09:48.185Z,9.90
2023-03-20T13:12:54.857Z,9.90
2023-03-20T13:15:41.566Z,9.80
2023-03-20T13:18:35.521Z,9.70
2023-03-20T13:21:10.807Z,9.60
2023-03-20T13:23:56.843Z,9.50
2023-03-20T13:26:35.055Z,9.50
2023-03-20T13:29:27.067Z,9.40
2023-03-20T13:32:34.386Z,9.30
2023-03-20T13:35:23.488Z,9.40
2023-03-20T13:37:55.658Z,9.40
2023-03-20T13:40:35.697Z,9.40
2023-03-20T13:43:28.510Z,9.30
2023-03-20T13:46:20.078Z,9.30
2023-03-20T13:48:47.563Z,9.10
2023-03-20T13:51:54.971Z,9.00
2023-03-20T13:55:01.757Z,9.00
2023-03-20T13:58:08.442Z,9.00
2023-03-20T14:01:15.490Z,8.90
2023-03-20T14:03:46.326Z,9.00
2023-03-20T14:06:53.073Z,7.70
2023-03-20T14:09:48.685Z,8.90
2023-03-20T14:12:15.754Z,8.90
2023-03-20T14:14:50.410Z,8.90
2023-03-20T14:17:21.278Z,8.90
2023-03-20T14:19:49.923Z,8.80
2023-03-20T14:22:20.824Z,8.90
2023-03-20T14:24:56.122Z,8.80
2023-03-20T14:27:42.767Z,8.80
2023-03-20T14:30:51.442Z,8.60
2023-03-20T14:33:42.453Z,8.70
2023-03-20T14:36:30.499Z,8.70
2023-03-20T14:39:37.201Z,8.70
2023-03-20T14:42:43.873Z,7.10
2023-03-20T14:45:30.632Z,8.70
2023-03-20T14:48:37.789Z,8.60
2023-03-20T14:51:30.043Z,8.80
2023-03-20T14:54:19.014Z,7.20
2023-03-20T14:56:46.058Z,8.90
2023-03-20T14:59:15.547Z,9.00
2023-03-20T15:02:03.210Z,8.90
2023-03-20T15:04:37.536Z,8.90
2023-03-20T15:07:14.965Z,9.00
2023-03-20T15:09:56.400Z,9.00
2023-03-20T15:12:28.251Z,8.80
2023-03-20T15:14:59.595Z,9.00
2023-03-20T15:17:48.278Z,9.00
2023-03-20T15:20:21.412Z,8.80
2023-03-20T15:23:08.315Z,8.90
2023-03-20T15:25:40.777Z,8.90
2023-03-20T15:28:09.464Z,8.90
2023-03-20T15:30:39.500Z,8.90
2023-03-20T15:33:15.082Z,8.90
2023-03-20T15:35:42.154Z,8.90
2023-03-20T15:38:12.509Z,8.90
2023-03-20T15:40:50.576Z,8.90
2023-03-20T15:43:24.379Z,8.90
2023-03-20T15:46:14.246Z,8.80
2023-03-20T15:48:46.934Z,8.80
2023-03-20T15:51:14.330Z,8.80
2023-03-20T15:53:45.580Z,8.80
2023-03-20T15:56:18.736Z,8.70
2023-03-20T15:58:50.273Z,8.70
2023-03-20T16:01:21.228Z,8.40
2023-03-20T16:03:49.225Z,8.30
2023-03-20T16:06:21.202Z,7.20
2023-03-20T16:09:08.160Z,8.10
2023-03-20T16:11:38.960Z,8.20
2023-03-20T16:14:08.107Z,8.10
2023-03-20T16:16:37.867Z,8.10
2023-03-20T16:19:07.253Z,8.00
2023-03-20T16:21:38.981Z,8.10
2023-03-20T16:24:09.320Z,8.00
2023-03-20T16:26:41.104Z,8.00
2023-03-20T16:29:11.291Z,7.90
2023-03-20T16:31:45.794Z,7.80
2023-03-20T16:34:20.770Z,7.80
2023-03-20T16:36:54.944Z,7.80
2023-03-20T16:39:25.902Z,7.80
2023-03-20T16:42:03.305Z,7.80
2023-03-20T16:44:36.438Z,7.90
2023-03-20T16:47:21.816Z,7.80
2023-03-20T16:49:51.942Z,7.80
2023-03-20T16:52:32.431Z,7.80
2023-03-20T16:55:00.784Z,7.80
2023-03-20T16:57:33.312Z,7.90
2023-03-20T17:00:07.248Z,7.90
2023-03-20T17:02:41.034Z,7.80
2023-03-20T17:05:13.643Z,7.80
2023-03-20T17:07:42.682Z,7.80
2023-03-20T17:10:29.528Z,7.20
2023-03-20T17:12:56.747Z,7.70
2023-03-20T17:15:25.019Z,7.60
2023-03-20T17:17:52.190Z,6.90
2023-03-20T17:20:39.297Z,7.50
2023-03-20T17:23:13.532Z,7.50
2023-03-20T17:25:40.679Z,7.60
2023-03-20T17:28:10.651Z,7.70
2023-03-20T17:30:38.316Z,7.50
2023-03-20T17:33:13.607Z,7.50
2023-03-20T17:35:40.688Z,7.50
2023-03-20T17:38:18.168Z,7.60
2023-03-20T17:40:45.501Z,7.60
2023-03-20T17:43:14.385Z,7.60
2023-03-20T17:45:42.509Z,7.40
2023-03-20T17:48:15.992Z,7.50
2023-03-20T17:50:45.166Z,7.40
2023-03-20T17:53:16.240Z,7.50
2023-03-20T17:55:43.408Z,7.40
2023-03-20T17:58:22.021Z,7.40
2023-03-20T18:00:50.486Z,7.30
2023-03-20T18:03:18.308Z,7.30
2023-03-20T18:05:47.678Z,7.30
2023-03-20T18:08:20.029Z,7.20
2023-03-20T18:10:47.954Z,7.40
2023-03-20T18:13:14.930Z,7.20
2023-03-20T18:15:42.130Z,7.30
2023-03-20T18:18:09.560Z,7.30
2023-03-20T18:20:41.198Z,7.20
2023-03-20T18:23:08.740Z,7.20
2023-03-20T18:25:36.158Z,7.20
2023-03-20T18:28:05.105Z,7.20
2023-03-20T18:30:41.541Z,6.10
2023-03-20T18:33:08.912Z,7.20
2023-03-20T18:35:36.679Z,7.20
2023-03-20T18:38:04.565Z,7.30
2023-03-20T18:40:36.791Z,7.30
2023-03-20T18:43:05.024Z,7.20
2023-03-20T18:45:32.616Z,7.20
2023-03-20T18:47:59.970Z,7.20
2023-03-20T18:50:30.491Z,7.20
2023-03-20T18:52:58.617Z,7.20
2023-03-20T18:55:28.103Z,7.20
2023-03-20T18:57:55.432Z,7.20
2023-03-20T19:00:26.562Z,7.10
2023-03-20T19:02:55.606Z,7.10
2023-03-20T19:05:24.833Z,7.10
2023-03-20T19:07:52.389Z,7.10
2023-03-20T19:10:40.547Z,7.10
2023-03-20T19:13:07.884Z,7.10
2023-03-20T19:15:37.527Z,7.10
2023-03-20T19:18:07.564Z,7.10
2023-03-20T19:20:56.584Z,7.10
2023-03-20T19:23:25.947Z,7.10
2023-03-20T19:25:54.607Z,7.00
2023-03-20T19:28:37.736Z,7.10
2023-03-20T19:31:08.078Z,7.10
2023-03-20T19:33:35.868Z,7.10
2023-03-20T19:36:04.596Z,7.00
2023-03-20T19:38:32.640Z,7.00
2023-03-20T19:41:00.351Z,6.90
2023-03-20T19:43:29.075Z,7.00
2023-03-20T19:45:59.095Z,6.90
2023-03-20T19:51:21.331Z,6.90
2023-03-20T19:53:49.434Z,6.90
2023-03-20T19:56:18.376Z,6.90
2023-03-20T19:58:45.585Z,6.90
2023-03-20T20:01:19.265Z,6.90
2023-03-20T20:03:47.216Z,6.90
2023-03-20T20:06:14.900Z,6.90
2023-03-20T20:08:48.350Z,7.10
2023-03-20T20:11:17.494Z,7.00
2023-03-20T20:16:33.002Z,6.90
2023-03-20T20:19:00.221Z,6.90
2023-03-20T20:22:25.281Z,6.80
2023-03-20T20:24:53.996Z,6.90
2023-03-20T20:27:21.128Z,6.90
2023-03-20T20:29:51.210Z,7.00
2023-03-20T20:32:20.903Z,7.00
2023-03-20T20:38:19.619Z,6.90
2023-03-20T20:40:26.201Z,6.90
2023-03-20T20:42:56.280Z,7.10
2023-03-20T20:45:25.676Z,6.90
2023-03-20T20:47:53.773Z,6.80
2023-03-20T20:50:25.032Z,6.90
2023-03-20T20:52:52.403Z,6.80
2023-03-20T20:55:23.511Z,6.80
2023-03-20T20:57:53.797Z,6.80
2023-03-20T21:00:27.514Z,6.90
2023-03-20T21:02:58.969Z,6.80
2023-03-20T21:05:27.294Z,6.80
2023-03-20T21:07:54.603Z,6.80
2023-03-20T21:10:22.318Z,6.80
2023-03-20T21:12:59.092Z,6.80
2023-03-20T21:15:27.531Z,6.80
2023-03-20T21:18:01.226Z,7.00
2023-03-20T21:20:31.424Z,6.90
2023-03-20T21:22:58.976Z,6.80
2023-03-20T21:25:39.197Z,6.90
2023-03-20T21:28:07.931Z,6.80
2023-03-20T21:30:35.244Z,6.80
2023-03-20T21:33:02.849Z,6.90
2023-03-20T21:35:30.723Z,6.80
2023-03-20T21:38:47.482Z,6.80
2023-03-20T21:40:45.927Z,6.70
2023-03-20T21:43:14.460Z,6.70
2023-03-20T21:49:13.288Z,6.70
2023-03-20T22:02:30.938Z,7.00
2023-03-20T22:08:36.377Z,6.70
2023-03-20T22:22:51.402Z,6.60
2023-03-20T22:46:55.192Z,6.50
2023-03-20T22:49:22.425Z,6.50
2023-03-20T22:52:11.515Z,6.40
2023-03-20T22:54:38.182Z,6.50
2023-03-20T22:57:05.439Z,6.50
2023-03-20T22:59:32.766Z,6.50
2023-03-20T23:01:59.978Z,6.40
2023-03-20T23:04:29.612Z,6.40
2023-03-20T23:06:57.424Z,6.40
2023-03-20T23:09:24.483Z,6.40
2023-03-20T23:11:51.516Z,6.40
2023-03-20T23:14:21.699Z,6.40
2023-03-20T23:16:50.190Z,6.40
2023-03-20T23:19:17.754Z,6.50
2023-03-20T23:21:45.016Z,6.40
2023-03-20T23:24:12.038Z,6.40
2023-03-20T23:26:39.103Z,6.40
2023-03-20T23:29:06.606Z,6.40
2023-03-20T23:31:33.993Z,6.40
2023-03-20T23:34:01.203Z,6.40
2023-03-20T23:36:36.338Z,6.40
2023-03-20T23:39:05.854Z,6.30
2023-03-20T23:42:01.822Z,6.30
2023-03-20T23:44:20.280Z,6.30
2023-03-20T23:46:48.358Z,6.20
2023-03-20T23:49:16.545Z,6.20
2023-03-20T23:51:43.649Z,6.30
2023-03-20T23:54:11.143Z,6.20
2023-03-20T23:56:38.351Z,6.30
2023-03-20T23:59:18.722Z,6.30
